Time;durP1;ratioP1;P1;durP2;ratioP2;P2;SDS_P1;SDS_P2;PMS_P1;PMS_P2;Temp;Humidity;BMP_temperature;BMP_pressure;BME280_temperature;BME280_humidity;BME280_pressure;Samples;Min_cycle;Max_cycle;Signal;HPM_P1;HPM_P2
2021/12/26 00:01:17;;;;;;;;;17.25;16.75;;;;;12.44;70.07;100263.47;6307189;22;45737;-81
2021/12/26 00:03:43;;;;;;;;;30.75;24.75;;;;;12.40;71.67;100256.59;6333993;22;45170;-81
2021/12/26 00:06:17;;;;;;;;;26.50;21.75;;;;;12.40;71.66;100253.97;6306821;22;46283;-81
2021/12/26 00:08:45;;;;;;;;;35.25;28.50;;;;;12.39;71.32;100249.66;6307244;22;47210;-82
2021/12/26 00:11:11;;;;;;;;;38.00;31.00;;;;;12.37;71.70;100247.06;6309762;22;45724;-82
2021/12/26 00:13:38;;;;;;;;;39.25;30.00;;;;;12.38;71.78;100251.41;6307855;22;45215;-81
2021/12/26 00:16:04;;;;;;;;;21.75;17.75;;;;;12.35;70.45;100246.28;6308859;22;45348;-82
2021/12/26 00:18:31;;;;;;;;;38.50;31.75;;;;;12.35;71.55;100243.66;6309344;22;45334;-84
2021/12/26 00:20:57;;;;;;;;;41.25;31.75;;;;;12.36;71.83;100253.28;6309050;22;45430;-85
2021/12/26 00:23:23;;;;;;;;;41.75;31.00;;;;;12.34;71.81;100241.97;6307605;22;45193;-84
2021/12/26 00:25:49;;;;;;;;;32.75;27.25;;;;;12.34;72.16;100244.59;6309542;22;45142;-85
2021/12/26 00:28:15;;;;;;;;;37.00;27.50;;;;;12.34;72.17;100255.13;6306686;22;46862;-84
2021/12/26 00:30:41;;;;;;;;;38.25;30.25;;;;;12.33;72.09;100244.66;6307533;22;45132;-84
2021/12/26 00:33:07;;;;;;;;;36.50;27.25;;;;;12.28;72.25;100234.34;6307929;22;45190;-84
2021/12/26 00:35:32;;;;;;;;;30.75;26.25;;;;;12.29;71.99;100243.97;6307121;22;45906;-85
2021/12/26 00:37:58;;;;;;;;;31.75;27.50;;;;;12.27;72.46;100235.28;6307069;22;47033;-85
2021/12/26 00:40:26;;;;;;;;;35.75;30.00;;;;;12.23;72.18;100234.56;6309383;22;45384;-84
2021/12/26 00:42:53;;;;;;;;;32.50;27.25;;;;;12.23;72.05;100231.94;6309192;22;45403;-84
2021/12/26 00:45:19;;;;;;;;;33.00;26.25;;;;;12.20;72.24;100229.44;6307224;22;46839;-85
2021/12/26 00:47:45;;;;;;;;;29.00;26.00;;;;;12.22;72.34;100224.94;6307355;22;47223;-85
2021/12/26 00:50:14;;;;;;;;;28.75;26.25;;;;;12.19;72.21;100227.75;6306608;22;45730;-84
2021/12/26 00:52:40;;;;;;;;;31.50;26.75;;;;;12.17;72.32;100226.09;6305908;22;45283;-85
2021/12/26 00:55:09;;;;;;;;;32.75;26.25;;;;;12.18;72.54;100235.69;6333490;22;46070;-85
2021/12/26 00:57:35;;;;;;;;;29.25;25.25;;;;;12.12;72.37;100235.03;6308806;22;46485;-85
2021/12/26 01:00:00;;;;;;;;;28.00;24.75;;;;;12.13;72.63;100242.06;6306610;22;45848;-84
2021/12/26 01:02:26;;;;;;;;;32.75;27.00;;;;;12.11;72.74;100237.75;6307679;22;45163;-82
2021/12/26 01:04:51;;;;;;;;;31.00;26.75;;;;;12.10;72.93;100239.53;6309094;22;45900;-82
2021/12/26 01:07:31;;;;;;;;;28.25;26.50;;;;;12.12;72.54;100239.47;6309324;22;46321;-82
2021/12/26 01:09:56;;;;;;;;;27.75;23.50;;;;;12.12;72.68;100242.94;6309327;22;45680;-82
2021/12/26 01:12:23;;;;;;;;;21.75;19.50;;;;;12.09;72.50;100245.75;6309626;22;45199;-82
2021/12/26 01:14:53;;;;;;;;;24.25;21.50;;;;;12.06;72.67;100235.34;6309504;22;45195;-82
2021/12/26 01:17:22;;;;;;;;;27.50;25.75;;;;;12.08;72.65;100238.75;6309349;22;45371;-82
2021/12/26 01:19:51;;;;;;;;;26.75;25.50;;;;;12.05;72.79;100233.63;6308654;22;45149;-82
2021/12/26 01:22:18;;;;;;;;;27.25;24.00;;;;;12.06;72.74;100237.13;6308631;22;45164;-82
2021/12/26 01:24:45;;;;;;;;;28.75;26.50;;;;;12.06;72.66;100237.97;6309071;22;45310;-82
2021/12/26 01:27:11;;;;;;;;;33.75;25.75;;;;;12.06;72.93;100243.25;6306909;22;48169;-85
2021/12/26 01:29:37;;;;;;;;;25.50;24.00;;;;;12.06;72.42;100237.97;6309686;22;45720;-94
2021/12/26 01:32:05;;;;;;;;;31.25;27.50;;;;;12.06;72.45;100237.97;6307937;22;45684;-94
2021/12/26 01:34:31;;;;;;;;;29.25;25.50;;;;;12.02;72.70;100232.00;6308184;22;46018;-95
2021/12/26 01:36:56;;;;;;;;;29.50;24.00;;;;;12.04;72.71;100237.19;6307718;22;47147;-92
2021/12/26 01:39:23;;;;;;;;;32.50;24.75;;;;;12.04;72.99;100237.19;6309748;22;45193;-87
2021/12/26 01:41:49;;;;;;;;;27.50;21.00;;;;;12.03;72.49;100231.06;6309447;22;45349;-93
2021/12/26 01:44:15;;;;;;;;;29.50;25.00;;;;;12.02;72.80;100231.16;6307891;22;45991;-94
2021/12/26 01:46:43;;;;;;;;;26.50;24.75;;;;;12.05;72.58;100230.97;6334554;22;47573;-94
2021/12/26 01:49:14;;;;;;;;;28.25;25.00;;;;;12.01;72.62;100229.44;6308074;22;45697;-94
2021/12/26 01:51:41;;;;;;;;;26.50;23.75;;;;;12.03;72.71;100238.09;6307970;22;45179;-94
2021/12/26 01:54:10;;;;;;;;;25.25;23.50;;;;;12.04;73.08;100224.03;6307511;22;45999;-93
2021/12/26 01:56:37;;;;;;;;;37.50;27.50;;;;;12.03;72.62;100228.44;6307557;22;47930;-93
2021/12/26 01:59:04;;;;;;;;;29.00;26.50;;;;;12.02;72.89;100223.25;6308175;22;45752;-94
2021/12/26 02:01:30;;;;;;;;;27.00;25.75;;;;;12.02;72.25;100226.75;6307734;22;45377;-94
2021/12/26 02:03:56;;;;;;;;;36.75;32.00;;;;;12.03;72.71;100232.84;6307594;22;46966;-94
2021/12/26 02:06:21;;;;;;;;;31.25;24.25;;;;;12.02;72.90;100232.00;6307443;22;47008;-93
2021/12/26 02:08:48;;;;;;;;;28.75;25.50;;;;;12.01;72.81;100235.56;6334160;22;45280;-93
2021/12/26 02:11:15;;;;;;;;;24.75;22.25;;;;;11.99;72.66;100237.41;6334302;22;45235;-94
2021/12/26 02:13:40;;;;;;;;;31.25;26.25;;;;;12.01;72.70;100234.69;6309522;22;46115;-94
2021/12/26 02:16:08;;;;;;;;;30.50;27.25;;;;;12.04;72.58;100245.09;6309210;22;47008;-94
2021/12/26 02:18:34;;;;;;;;;27.00;24.50;;;;;12.02;72.54;100239.06;6335583;22;45403;-93
2021/12/26 02:28:46;;;;;;;;;28.25;26.75;;;;;11.98;72.58;100235.69;6309683;22;45227;-84
2021/12/26 02:31:13;;;;;;;;;27.75;23.75;;;;;11.97;72.76;100233.16;6310112;22;45245;-84
2021/12/26 02:33:39;;;;;;;;;27.25;23.50;;;;;11.96;72.93;100224.38;6310331;22;45237;-84
2021/12/26 02:36:06;;;;;;;;;25.50;23.00;;;;;11.98;72.84;100229.56;6307870;22;47918;-84
2021/12/26 02:38:32;;;;;;;;;27.50;24.25;;;;;11.94;72.13;100226.25;6309634;22;46040;-84
2021/12/26 02:40:59;;;;;;;;;26.50;24.75;;;;;11.95;72.77;100227.94;6310234;22;45293;-84
2021/12/26 02:43:26;;;;;;;;;32.00;27.25;;;;;11.94;72.65;100228.88;6310162;22;45297;-84
2021/12/26 02:45:52;;;;;;;;;28.75;26.75;;;;;11.96;72.97;100223.53;6309846;22;46417;-87
2021/12/26 02:48:17;;;;;;;;;30.75;30.00;;;;;11.93;72.91;100217.47;6308023;22;45915;-88
2021/12/26 02:50:46;;;;;;;;;22.00;21.50;;;;;11.93;72.94;100217.47;6309855;22;45205;-89
2021/12/26 02:53:20;;;;;;;;;36.25;28.00;;;;;11.94;72.92;100218.34;6308280;22;47156;-89
2021/12/26 02:55:53;;;;;;;;;25.00;23.00;;;;;11.95;72.55;100214.75;6310058;22;45237;-85
2021/12/26 02:58:20;;;;;;;;;27.50;25.25;;;;;11.95;72.81;100214.75;6310092;22;45164;-84
2021/12/26 03:00:51;;;;;;;;;27.50;23.25;;;;;11.96;72.54;100220.88;6308169;22;45278;-83
2021/12/26 03:03:17;;;;;;;;;26.75;22.00;;;;;11.97;72.68;100217.34;6309985;22;45278;-83
2021/12/26 03:05:44;;;;;;;;;28.75;25.50;;;;;11.95;72.80;100211.31;6333726;22;48041;-86
2021/12/26 03:08:13;;;;;;;;;31.75;28.50;;;;;11.98;72.83;100213.75;6310042;22;45262;-87
2021/12/26 03:10:39;;;;;;;;;30.50;26.00;;;;;11.94;72.87;100213.06;6308207;22;45325;-88
2021/12/26 03:13:09;;;;;;;;;31.00;27.75;;;;;11.96;72.69;100220.88;6309858;22;45597;-87
2021/12/26 03:15:37;;;;;;;;;27.75;25.25;;;;;11.93;72.73;100217.47;6309283;22;46347;-87
2021/12/26 03:18:03;;;;;;;;;31.00;27.75;;;;;11.94;72.87;100220.97;6310151;22;45396;-87
2021/12/26 03:20:32;;;;;;;;;25.00;21.00;;;;;11.92;72.85;100221.06;6309342;22;45438;-85
2021/12/26 03:23:00;;;;;;;;;35.25;29.75;;;;;11.92;72.90;100210.53;6309574;22;45547;-85
2021/12/26 03:25:27;;;;;;;;;32.75;29.50;;;;;11.90;72.85;100208.88;6309622;22;45406;-87
2021/12/26 03:27:52;;;;;;;;;27.50;26.50;;;;;11.90;72.60;100214.16;6309922;22;45400;-88
2021/12/26 03:30:25;;;;;;;;;26.75;23.50;;;;;11.93;72.94;100217.47;6309785;22;45334;-87
2021/12/26 03:32:52;;;;;;;;;30.25;26.75;;;;;11.89;72.61;100213.28;6309877;22;45197;-85
2021/12/26 03:35:19;;;;;;;;;32.25;29.25;;;;;11.91;72.75;100223.75;6309254;22;46263;-85
2021/12/26 03:37:45;;;;;;;;;28.25;24.50;;;;;11.90;72.60;100217.63;6309878;22;45226;-84
2021/12/26 03:40:11;;;;;;;;;34.00;26.50;;;;;11.90;72.95;100216.78;6310105;22;45215;-84
2021/12/26 03:42:37;;;;;;;;;30.75;23.75;;;;;11.92;73.02;100226.31;6309980;22;45292;-85
2021/12/26 03:45:05;;;;;;;;;35.75;27.00;;;;;11.90;72.71;100214.97;6309712;22;45347;-85
2021/12/26 03:47:32;;;;;;;;;31.25;28.75;;;;;11.90;72.64;100212.34;6309774;22;45143;-83
2021/12/26 03:49:58;;;;;;;;;30.25;27.50;;;;;11.91;72.73;100215.84;6309717;22;45398;-88
2021/12/26 03:52:25;;;;;;;;;29.00;24.00;;;;;11.91;72.87;100207.94;6309746;22;45256;-86
2021/12/26 03:54:51;;;;;;;;;29.25;26.00;;;;;11.90;72.75;100214.97;6309766;22;45359;-86
2021/12/26 03:57:17;;;;;;;;;31.25;26.00;;;;;11.91;72.99;100213.22;6307616;22;45335;-86
2021/12/26 03:59:42;;;;;;;;;25.50;22.75;;;;;11.92;73.14;100212.28;6310160;22;45479;-88
2021/12/26 04:02:07;;;;;;;;;30.25;27.50;;;;;11.90;72.88;100201.81;6307339;22;47096;-82
2021/12/26 04:04:33;;;;;;;;;32.00;28.75;;;;;11.90;72.88;100204.44;6309335;22;45134;-82
2021/12/26 04:06:58;;;;;;;;;32.00;26.75;;;;;11.90;72.74;100201.81;6309547;22;45158;-86
2021/12/26 04:09:24;;;;;;;;;29.00;28.25;;;;;11.91;72.74;100207.94;6309941;22;45435;-84
2021/12/26 04:11:49;;;;;;;;;32.50;30.00;;;;;11.90;72.75;100195.72;6309396;22;45073;-84
2021/12/26 04:14:16;;;;;;;;;27.50;26.25;;;;;11.89;73.09;100192.22;6309470;22;45280;-84
2021/12/26 04:16:42;;;;;;;;;29.50;25.00;;;;;11.90;73.02;100191.28;6309817;22;45198;-85
2021/12/26 04:19:07;;;;;;;;;28.25;26.25;;;;;11.88;72.89;100190.50;6307898;22;45364;-87
2021/12/26 04:21:33;;;;;;;;;30.75;24.00;;;;;11.86;72.76;100189.72;6308654;22;45486;-88
2021/12/26 04:24:00;;;;;;;;;28.00;25.75;;;;;11.87;72.91;100190.59;6309619;22;45302;-89
2021/12/26 04:26:26;;;;;;;;;30.00;24.00;;;;;11.87;72.47;100194.09;6309617;22;45241;-84
2021/12/26 04:28:52;;;;;;;;;29.00;25.25;;;;;11.85;73.00;100188.03;6309703;22;45233;-82
2021/12/26 04:31:17;;;;;;;;;32.00;27.75;;;;;11.86;72.96;100194.13;6307336;22;45746;-83
2021/12/26 04:33:43;;;;;;;;;29.00;26.50;;;;;11.86;72.57;100186.25;6309285;22;45184;-81
2021/12/26 04:36:08;;;;;;;;;32.50;27.75;;;;;11.87;72.73;100188.81;6308615;22;45077;-86
2021/12/26 04:38:34;;;;;;;;;31.75;28.00;;;;;11.89;72.99;100196.63;6309776;22;45103;-87
2021/12/26 04:41:00;;;;;;;;;28.50;25.75;;;;;11.87;73.12;100185.31;6309244;22;45511;-91
2021/12/26 04:43:27;;;;;;;;;29.00;25.25;;;;;11.86;72.81;100186.25;6307294;22;47811;-81
2021/12/26 04:45:52;;;;;;;;;28.25;28.25;;;;;11.85;72.75;100182.78;6309467;22;45258;-82
2021/12/26 04:48:18;;;;;;;;;29.25;26.00;;;;;11.86;72.78;100186.25;6310211;22;45368;-90
2021/12/26 04:50:43;;;;;;;;;28.25;25.00;;;;;11.84;72.54;100181.06;6309143;22;45308;-88
2021/12/26 04:53:10;;;;;;;;;32.75;28.50;;;;;11.86;72.70;100179.19;6309443;22;46173;-88
2021/12/26 04:55:36;;;;;;;;;33.50;30.00;;;;;11.82;72.89;100172.38;6309366;22;45600;-88
2021/12/26 04:58:01;;;;;;;;;33.00;29.00;;;;;11.84;72.92;100178.41;6309701;22;45370;-89
2021/12/26 05:00:29;;;;;;;;;30.75;26.25;;;;;11.86;72.95;100178.34;6309042;22;45300;-88
2021/12/26 05:02:57;;;;;;;;;29.00;25.00;;;;;11.85;72.95;100176.66;6307142;22;47272;-88
2021/12/26 05:05:23;;;;;;;;;21.50;20.50;;;;;11.84;73.21;100167.03;6309129;22;45356;-87
2021/12/26 05:07:48;;;;;;;;;33.25;26.75;;;;;11.84;73.12;100175.78;6307359;22;45400;-88
2021/12/26 05:10:18;;;;;;;;;33.75;29.50;;;;;11.85;72.63;100160.84;6307007;22;46532;-87
2021/12/26 05:12:43;;;;;;;;;27.50;24.75;;;;;11.85;72.96;100172.25;6307851;22;48270;-92
2021/12/26 05:15:10;;;;;;;;;29.00;27.50;;;;;11.83;73.00;100171.44;6307879;22;45368;-92
2021/12/26 05:17:37;;;;;;;;;31.50;26.75;;;;;11.82;72.55;100169.75;6307848;22;45203;-88
2021/12/26 05:20:03;;;;;;;;;29.00;28.00;;;;;11.84;73.06;100175.78;6307894;22;45230;-90
2021/12/26 05:22:28;;;;;;;;;27.25;25.50;;;;;11.83;72.74;100171.44;6308620;22;46559;-91
2021/12/26 05:24:54;;;;;;;;;27.50;26.75;;;;;11.83;73.31;100168.81;6309563;22;45479;-91
2021/12/26 05:27:19;;;;;;;;;29.00;29.00;;;;;11.84;72.57;100170.53;6307869;22;45294;-91
2021/12/26 05:29:45;;;;;;;;;27.00;24.75;;;;;11.85;72.87;100168.75;6307206;22;45785;-90
2021/12/26 05:32:10;;;;;;;;;30.75;25.25;;;;;11.84;72.93;100156.50;6307068;22;47338;-88
2021/12/26 05:34:35;;;;;;;;;32.75;27.00;;;;;11.85;72.54;100158.22;6308823;22;45258;-89
2021/12/26 05:37:01;;;;;;;;;30.00;25.75;;;;;11.83;72.57;100158.28;6307361;22;45235;-89
2021/12/26 05:39:26;;;;;;;;;29.00;23.75;;;;;11.84;73.33;100159.13;6309259;22;45252;-89
2021/12/26 05:41:52;;;;;;;;;29.00;24.25;;;;;11.81;72.99;100153.09;6306556;22;47142;-89
2021/12/26 05:44:17;;;;;;;;;29.75;27.00;;;;;11.82;72.71;100154.81;6306785;22;45321;-88
2021/12/26 05:46:43;;;;;;;;;27.25;26.50;;;;;11.84;72.64;100149.47;6307719;22;45303;-90
2021/12/26 05:49:09;;;;;;;;;31.00;25.25;;;;;11.85;73.02;100155.59;6308576;22;46281;-90
2021/12/26 05:51:34;;;;;;;;;28.75;25.25;;;;;11.81;73.15;100142.56;6309571;22;46010;-89
2021/12/26 05:54:00;;;;;;;;;27.75;24.75;;;;;11.84;73.43;100154.72;6310299;22;45290;-89
2021/12/26 05:56:25;;;;;;;;;23.00;22.50;;;;;11.82;72.69;100152.19;6308321;22;45250;-87
2021/12/26 05:58:51;;;;;;;;;29.75;26.00;;;;;11.84;72.96;100157.34;6309901;22;45092;-89
2021/12/26 06:01:17;;;;;;;;;28.25;23.50;;;;;11.82;73.05;100154.81;6310651;22;46533;-90
2021/12/26 06:03:42;;;;;;;;;26.00;24.25;;;;;11.84;72.94;100160.00;6310772;22;45217;-92
2021/12/26 06:06:07;;;;;;;;;26.75;22.75;;;;;11.84;73.00;100156.50;6308977;22;45348;-91
2021/12/26 06:08:33;;;;;;;;;28.25;23.25;;;;;11.85;73.08;100156.44;6308812;22;46658;-91
2021/12/26 06:10:58;;;;;;;;;25.75;23.25;;;;;11.82;72.98;100161.84;6308600;22;47439;-89
2021/12/26 06:13:24;;;;;;;;;26.75;24.25;;;;;11.86;73.06;100154.63;6310524;22;45551;-90
2021/12/26 06:15:50;;;;;;;;;25.75;22.50;;;;;11.85;72.87;100151.19;6311058;22;45352;-91
2021/12/26 06:18:15;;;;;;;;;30.75;26.00;;;;;11.86;72.95;100150.22;6308509;22;45797;-90
2021/12/26 06:20:40;;;;;;;;;25.25;23.00;;;;;11.85;73.16;100156.44;6309857;22;46194;-91
2021/12/26 06:23:06;;;;;;;;;23.50;22.25;;;;;11.84;73.01;100154.72;6310190;22;45423;-86
2021/12/26 06:25:31;;;;;;;;;21.00;20.50;;;;;11.85;72.92;100148.53;6310084;22;45394;-88
2021/12/26 06:27:57;;;;;;;;;27.50;22.50;;;;;11.83;73.02;100142.47;6309955;22;45468;-87
2021/12/26 06:30:23;;;;;;;;;25.50;22.75;;;;;11.85;73.06;100150.31;6309766;22;45469;-87
2021/12/26 06:32:48;;;;;;;;;23.00;18.25;;;;;11.85;73.00;100142.41;6310118;22;45170;-82
2021/12/26 06:35:14;;;;;;;;;28.75;22.25;;;;;11.85;73.06;100145.06;6309855;22;45210;-85
2021/12/26 06:37:39;;;;;;;;;20.50;20.00;;;;;11.87;73.02;100145.81;6309877;22;45137;-86
2021/12/26 06:40:07;;;;;;;;;20.25;20.00;;;;;11.84;73.07;100146.81;6307510;22;47506;-87
2021/12/26 06:42:37;;;;;;;;;20.25;19.75;;;;;11.84;73.23;100136.28;6309934;22;45719;-86
2021/12/26 06:45:03;;;;;;;;;26.50;21.25;;;;;11.85;72.91;100139.78;6310349;22;45143;-86
2021/12/26 06:47:28;;;;;;;;;20.75;16.75;;;;;11.86;73.00;100146.75;6309967;22;45222;-86
2021/12/26 06:49:53;;;;;;;;;23.00;20.00;;;;;11.84;73.04;100141.56;6309702;22;45243;-87
2021/12/26 06:52:19;;;;;;;;;24.00;19.75;;;;;11.85;73.12;100134.50;6308259;22;45112;-84
2021/12/26 06:54:44;;;;;;;;;23.00;21.00;;;;;11.86;73.34;100141.47;6310361;22;45229;-85
2021/12/26 06:57:10;;;;;;;;;19.00;19.00;;;;;11.86;73.39;100137.06;6309506;22;45424;-85
2021/12/26 06:59:36;;;;;;;;;19.00;18.25;;;;;11.86;73.04;100138.84;6310002;22;45377;-86
2021/12/26 07:02:02;;;;;;;;;24.00;20.50;;;;;11.88;73.14;100145.75;6308431;22;45099;-85
2021/12/26 07:04:27;;;;;;;;;22.50;20.25;;;;;11.86;73.14;100142.34;6309822;22;45221;-85
2021/12/26 07:06:52;;;;;;;;;17.00;16.50;;;;;11.89;73.16;100143.97;6307818;22;46923;-89
2021/12/26 07:09:18;;;;;;;;;19.75;18.50;;;;;11.89;73.36;100141.34;6309772;22;45315;-89
2021/12/26 07:11:43;;;;;;;;;18.75;18.50;;;;;11.89;73.42;100152.72;6309788;22;45282;-89
2021/12/26 07:14:08;;;;;;;;;24.25;18.00;;;;;11.90;73.25;100148.31;6310201;22;45463;-89
2021/12/26 07:16:34;;;;;;;;;22.25;17.25;;;;;11.91;73.40;100155.28;6307564;22;46188;-90
2021/12/26 07:18:59;;;;;;;;;18.25;16.00;;;;;11.89;73.28;100150.09;6309905;22;46344;-86
2021/12/26 07:21:25;;;;;;;;;18.50;17.50;;;;;11.91;73.57;100153.50;6309044;22;45311;-83
2021/12/26 07:23:50;;;;;;;;;22.25;20.50;;;;;11.92;73.25;100149.09;6309858;22;45227;-86
2021/12/26 07:26:16;;;;;;;;;21.75;16.75;;;;;11.92;73.38;100149.09;6307848;22;46234;-86
2021/12/26 07:28:41;;;;;;;;;20.75;18.75;;;;;11.91;73.35;100153.50;6307760;22;47269;-81
2021/12/26 07:31:07;;;;;;;;;21.75;18.75;;;;;11.93;73.54;100159.53;6309918;22;45327;-83
2021/12/26 07:33:33;;;;;;;;;22.75;20.25;;;;;11.93;73.56;100161.31;6309062;22;45143;-93
2021/12/26 07:35:58;;;;;;;;;24.50;20.50;;;;;11.93;73.19;100164.81;6308416;22;46487;-94
2021/12/26 07:38:23;;;;;;;;;18.25;18.25;;;;;11.95;73.39;100162.09;6308612;22;46969;-93
2021/12/26 07:40:49;;;;;;;;;20.75;20.00;;;;;11.93;73.48;100167.44;6334507;22;45245;-87
2021/12/26 07:43:14;;;;;;;;;22.25;20.00;;;;;11.96;73.75;100162.94;6310447;22;45091;-92
2021/12/26 07:45:40;;;;;;;;;20.75;16.75;;;;;11.96;73.63;100165.59;6309996;22;45152;-81
2021/12/26 07:48:06;;;;;;;;;24.75;20.50;;;;;11.98;73.52;100166.34;6308692;22;45274;-81
2021/12/26 07:50:32;;;;;;;;;19.75;19.75;;;;;11.96;73.64;100163.81;6309052;22;45237;-81
2021/12/26 07:53:06;;;;;;;;;23.00;21.00;;;;;11.97;73.52;100155.00;6310081;22;45173;-81
2021/12/26 07:55:31;;;;;;;;;26.75;23.00;;;;;11.98;73.52;100155.81;6309759;22;45229;-82
2021/12/26 07:57:57;;;;;;;;;24.75;18.25;;;;;11.99;73.90;100155.78;6309763;22;46093;-82
2021/12/26 08:00:22;;;;;;;;;28.50;23.75;;;;;11.98;73.53;100161.94;6309585;22;45287;-82
2021/12/26 08:02:48;;;;;;;;;25.75;22.25;;;;;12.01;73.60;100166.22;6309849;22;45387;-82
2021/12/26 08:05:15;;;;;;;;;23.00;21.00;;;;;12.02;73.58;100173.22;6308722;22;45387;-80
2021/12/26 08:07:41;;;;;;;;;18.25;17.50;;;;;11.99;73.43;100160.19;6307761;22;47217;-80
2021/12/26 08:10:07;;;;;;;;;22.50;20.75;;;;;12.00;73.69;100160.09;6309460;22;45304;-81
2021/12/26 08:12:33;;;;;;;;;23.50;19.00;;;;;12.00;73.94;100159.25;6309380;22;45105;-81
2021/12/26 08:15:01;;;;;;;;;23.25;21.25;;;;;12.02;74.02;100173.22;6309698;22;45380;-82
2021/12/26 08:17:27;;;;;;;;;26.50;21.75;;;;;12.03;73.66;100167.00;6309264;22;46175;-82
2021/12/26 08:19:52;;;;;;;;;23.75;21.00;;;;;12.03;73.76;100174.91;6308443;22;45133;-82
2021/12/26 08:22:18;;;;;;;;;22.75;22.00;;;;;12.03;73.92;100172.25;6308803;22;45262;-82
2021/12/26 08:24:43;;;;;;;;;22.75;19.75;;;;;12.07;73.75;100170.34;6309575;22;45582;-81
2021/12/26 08:27:08;;;;;;;;;22.75;20.75;;;;;12.08;73.77;100174.66;6309371;22;45402;-80
2021/12/26 08:29:34;;;;;;;;;23.25;21.50;;;;;12.08;73.72;100183.44;6308329;22;45273;-81
2021/12/26 08:32:00;;;;;;;;;17.75;17.25;;;;;12.09;73.72;100177.25;6309934;22;45305;-82
2021/12/26 08:34:27;;;;;;;;;20.75;17.00;;;;;12.12;73.69;100178.88;6308800;22;45368;-81
2021/12/26 08:37:01;;;;;;;;;21.25;20.00;;;;;12.14;73.72;100185.81;6309297;22;46205;-81
2021/12/26 08:39:34;;;;;;;;;27.75;19.50;;;;;12.17;73.74;100183.97;6309514;22;45358;-82
2021/12/26 08:42:00;;;;;;;;;23.75;19.25;;;;;12.15;73.74;100176.97;6309593;22;45314;-82
2021/12/26 08:44:25;;;;;;;;;24.25;20.00;;;;;12.16;73.92;100177.81;6308838;22;45281;-82
2021/12/26 08:46:52;;;;;;;;;23.00;20.75;;;;;12.17;73.58;100187.44;6309396;22;45227;-82
2021/12/26 08:49:19;;;;;;;;;23.25;19.75;;;;;12.20;73.83;100192.53;6309224;22;45221;-87
2021/12/26 08:51:46;;;;;;;;;21.25;19.25;;;;;12.22;73.90;100193.31;6307556;22;45196;-87
2021/12/26 08:54:12;;;;;;;;;21.25;21.00;;;;;12.23;73.85;100191.53;6308907;22;45396;-90
2021/12/26 08:56:38;;;;;;;;;23.25;21.00;;;;;12.23;73.75;100196.81;6309406;22;45284;-86
2021/12/26 08:59:04;;;;;;;;;28.50;22.25;;;;;12.25;73.80;100195.81;6309281;22;45372;-81
2021/12/26 09:01:29;;;;;;;;;25.50;20.25;;;;;12.26;73.84;100188.78;6309815;22;45360;-82
2021/12/26 09:03:55;;;;;;;;;25.25;20.00;;;;;12.27;73.86;100193.13;6308781;22;45434;-79
2021/12/26 09:06:21;;;;;;;;;19.50;17.75;;;;;12.30;73.88;100205.28;6309113;22;45968;-81
2021/12/26 09:08:46;;;;;;;;;24.50;19.75;;;;;12.32;73.24;100206.06;6309094;22;45655;-85
2021/12/26 09:11:12;;;;;;;;;21.75;20.00;;;;;12.30;73.73;100200.84;6306690;22;45372;-82
2021/12/26 09:13:37;;;;;;;;;17.00;16.50;;;;;12.32;73.94;100201.63;6308802;22;45198;-82
2021/12/26 09:16:03;;;;;;;;;23.00;18.75;;;;;12.35;74.29;100212.03;6306573;22;46741;-82
2021/12/26 09:18:28;;;;;;;;;21.75;19.00;;;;;12.34;74.02;100212.97;6309262;22;45204;-82
2021/12/26 09:20:54;;;;;;;;;19.50;17.00;;;;;12.35;74.18;100217.31;6307984;22;45225;-80
2021/12/26 09:23:19;;;;;;;;;18.50;15.00;;;;;12.38;73.62;100209.25;6309949;22;45326;-83
2021/12/26 09:25:45;;;;;;;;;20.00;17.50;;;;;12.40;73.98;100211.81;6309937;22;46477;-83
2021/12/26 09:28:10;;;;;;;;;18.25;16.00;;;;;12.42;73.91;100219.66;6310057;22;45185;-83
2021/12/26 09:30:37;;;;;;;;;14.50;13.50;;;;;12.46;74.17;100229.09;6310540;22;45138;-83
2021/12/26 09:33:03;;;;;;;;;19.75;17.50;;;;;12.48;73.95;100222.84;6308171;22;45322;-83
2021/12/26 09:35:28;;;;;;;;;13.25;13.00;;;;;12.49;73.93;100223.69;6310021;22;46239;-81
2021/12/26 09:37:53;;;;;;;;;17.50;15.75;;;;;12.53;73.96;100224.38;6309990;22;45280;-83
2021/12/26 09:40:19;;;;;;;;;19.00;19.00;;;;;12.54;73.90;100226.97;6310499;22;45424;-85
2021/12/26 09:42:46;;;;;;;;;18.75;15.25;;;;;12.57;73.85;100226.78;6308805;22;45270;-82
2021/12/26 09:45:13;;;;;;;;;21.25;17.75;;;;;12.56;73.78;100219.81;6307653;22;46189;-82
2021/12/26 09:47:39;;;;;;;;;17.25;16.25;;;;;12.58;73.65;100225.88;6306444;22;45661;-83
2021/12/26 09:50:08;;;;;;;;;14.50;13.00;;;;;12.65;73.77;100230.81;6309027;22;45310;-83
2021/12/26 09:52:33;;;;;;;;;17.25;15.25;;;;;12.65;73.99;100226.41;6307171;22;47084;-82
2021/12/26 09:55:00;;;;;;;;;19.00;16.25;;;;;12.66;73.78;100222.00;6310008;22;46201;-82
2021/12/26 09:57:25;;;;;;;;;20.25;16.50;;;;;12.68;73.90;100223.63;6310205;22;45226;-82
2021/12/26 09:59:51;;;;;;;;;16.25;14.25;;;;;12.68;73.63;100223.63;6308088;22;45838;-83
2021/12/26 10:02:18;;;;;;;;;17.00;15.75;;;;;12.70;73.58;100229.66;6310089;22;45400;-82
2021/12/26 10:04:45;;;;;;;;;14.50;13.75;;;;;12.72;73.41;100226.94;6309915;22;45457;-82
2021/12/26 10:07:23;;;;;;;;;18.25;16.00;;;;;12.78;73.68;100233.69;6308208;22;45806;-82
2021/12/26 10:09:51;;;;;;;;;16.50;14.25;;;;;12.77;73.33;100231.97;6309152;22;45422;-82
2021/12/26 10:12:20;;;;;;;;;19.25;15.00;;;;;12.82;73.55;100237.88;6308012;22;46171;-84
2021/12/26 10:14:49;;;;;;;;;16.00;15.25;;;;;12.79;73.66;100232.78;6307707;22;48379;-82
2021/12/26 10:17:23;;;;;;;;;17.75;15.50;;;;;12.84;73.25;100233.38;6309987;22;45177;-79
2021/12/26 10:19:49;;;;;;;;;18.75;16.50;;;;;12.86;73.54;100230.69;6309938;22;45322;-82
2021/12/26 10:22:21;;;;;;;;;17.25;14.00;;;;;12.85;73.31;100221.03;6333793;22;46970;-80
2021/12/26 10:24:50;;;;;;;;;18.00;16.50;;;;;12.89;73.19;100220.81;6309866;22;45167;-80
2021/12/26 10:27:21;;;;;;;;;18.25;17.00;;;;;12.88;73.34;100216.47;6309476;22;45362;-82
2021/12/26 10:29:52;;;;;;;;;17.75;17.25;;;;;12.90;73.58;100205.84;6307944;22;45256;-80
2021/12/26 10:32:26;;;;;;;;;27.75;19.25;;;;;12.92;73.65;100206.63;6310210;22;45289;-80
2021/12/26 10:34:54;;;;;;;;;16.00;14.25;;;;;12.92;73.24;100204.84;6309523;22;45328;-80
2021/12/26 10:37:28;;;;;;;;;24.00;19.75;;;;;12.96;73.63;100215.22;6310359;22;45873;-80
2021/12/26 10:39:59;;;;;;;;;21.50;16.50;;;;;12.96;73.07;100210.81;6310253;22;45182;-80
2021/12/26 10:42:31;;;;;;;;;18.50;17.25;;;;;13.00;73.26;100211.50;6309822;22;45336;-80
2021/12/26 10:45:06;;;;;;;;;21.25;18.50;;;;;12.99;72.93;100208.00;6309724;22;45159;-80
2021/12/26 10:47:35;;;;;;;;;19.75;19.25;;;;;13.01;73.14;100200.84;6307883;22;45195;-80
2021/12/26 10:50:06;;;;;;;;;23.00;19.75;;;;;13.02;73.22;100204.34;6309708;22;45391;-80
2021/12/26 10:52:40;;;;;;;;;17.25;16.00;;;;;13.01;73.33;100206.13;6310105;22;45254;-79
2021/12/26 10:55:15;;;;;;;;;19.50;17.75;;;;;13.02;73.19;100204.34;6307822;22;47605;-80
2021/12/26 10:57:49;;;;;;;;;21.00;17.50;;;;;13.03;73.25;100206.06;6309811;22;45624;-80
2021/12/26 11:00:25;;;;;;;;;21.00;19.00;;;;;13.04;72.96;100202.47;6307294;22;45314;-80
2021/12/26 11:02:58;;;;;;;;;20.50;19.00;;;;;13.01;73.57;100192.09;6309246;22;45391;-80
2021/12/26 11:05:30;;;;;;;;;18.75;17.25;;;;;13.00;73.33;100191.25;6309135;22;45325;-80
2021/12/26 11:07:59;;;;;;;;;13.75;12.75;;;;;13.01;73.27;100197.38;6309888;22;45231;-79
2021/12/26 11:10:32;;;;;;;;;12.75;12.25;;;;;13.00;73.17;100191.25;6308102;22;45169;-79
2021/12/26 11:13:02;;;;;;;;;7.25;7.25;;;;;12.99;73.05;100186.91;6310197;22;45324;-80
2021/12/26 11:15:30;;;;;;;;;7.50;6.50;;;;;12.99;72.84;100186.91;6307587;22;48239;-80